createdAt,value
2023-01-19T00:00:19.991Z,71.20
2023-01-19T00:04:19.364Z,71.31
2023-01-19T00:08:20.601Z,71.32
2023-01-19T00:12:19.870Z,71.18
2023-01-19T00:16:19.277Z,70.83
2023-01-19T00:20:18.879Z,70.78
2023-01-19T00:24:20.139Z,70.61
2023-01-19T00:28:20.242Z,70.38
2023-01-19T00:32:19.954Z,70.65
2023-01-19T00:36:19.113Z,70.51
2023-01-19T00:40:20.646Z,71.08
2023-01-19T00:44:19.767Z,71.75
2023-01-19T00:48:18.929Z,71.99
2023-01-19T00:52:18.093Z,71.69
2023-01-19T00:56:19.350Z,70.76
2023-01-19T01:00:19.604Z,70.27
2023-01-19T01:04:18.869Z,70.27
2023-01-19T01:08:18.046Z,70.46
2023-01-19T01:12:19.288Z,70.62
2023-01-19T01:16:18.560Z,70.93
2023-01-19T01:20:19.795Z,70.79
2023-01-19T01:24:18.999Z,70.48
2023-01-19T01:28:20.277Z,70.40
2023-01-19T01:32:19.398Z,69.58
2023-01-19T01:36:18.597Z,68.74
2023-01-19T01:40:18.810Z,68.70
2023-01-19T01:44:36.774Z,68.78
2023-01-19T01:48:40.406Z,68.58
2023-01-19T01:52:43.544Z,68.42
2023-01-19T01:57:04.860Z,68.71
2023-01-19T02:01:16.845Z,68.97
2023-01-19T02:05:20.690Z,69.46
2023-01-19T02:09:36.272Z,69.44
2023-01-19T02:13:36.913Z,69.59
2023-01-19T02:17:36.180Z,69.50
2023-01-19T02:21:40.242Z,69.36
2023-01-19T02:25:41.985Z,69.44
2023-01-19T02:29:41.438Z,69.08
2023-01-19T02:33:40.641Z,69.55
2023-01-19T02:37:41.840Z,69.46
2023-01-19T02:41:47.080Z,69.33
2023-01-19T02:45:46.396Z,69.20
2023-01-19T02:49:45.678Z,69.08
2023-01-19T02:53:51.658Z,68.60
2023-01-19T02:57:57.964Z,68.51
2023-01-19T03:02:13.837Z,68.74
2023-01-19T03:06:19.830Z,69.15
2023-01-19T03:10:21.824Z,68.88
2023-01-19T03:14:25.585Z,68.95
2023-01-19T03:18:26.376Z,69.13
2023-01-19T03:22:27.201Z,69.17
2023-01-19T03:26:29.441Z,69.13
2023-01-19T03:30:32.782Z,69.08
2023-01-19T03:34:32.596Z,69.04
2023-01-19T03:38:34.468Z,69.19
2023-01-19T03:42:34.185Z,68.87
2023-01-19T03:46:35.704Z,69.15
2023-01-19T03:50:34.899Z,68.88
2023-01-19T03:54:34.265Z,69.20
2023-01-19T03:58:33.394Z,69.27
2023-01-19T04:02:34.759Z,68.78
2023-01-19T04:06:33.995Z,68.81
2023-01-19T04:10:33.428Z,69.11
2023-01-19T04:14:32.587Z,68.63
2023-01-19T04:18:35.147Z,68.36
2023-01-19T04:22:34.385Z,68.28
2023-01-19T04:26:33.535Z,68.33
2023-01-19T04:30:32.648Z,68.26
2023-01-19T04:34:33.877Z,68.49
2023-01-19T04:38:33.012Z,68.94
2023-01-19T04:42:31.950Z,69.11
2023-01-19T04:46:31.481Z,69.43
2023-01-19T04:50:32.748Z,69.52
2023-01-19T04:54:32.231Z,69.56
2023-01-19T04:58:31.379Z,69.47
2023-01-19T05:02:30.913Z,69.95
2023-01-19T05:06:32.380Z,70.09
2023-01-19T05:10:31.608Z,70.07
2023-01-19T05:14:30.802Z,70.36
2023-01-19T05:18:35.533Z,71.09
2023-01-19T05:22:36.793Z,71.41
2023-01-19T05:26:35.993Z,71.89
2023-01-19T05:30:35.651Z,72.30
2023-01-19T05:34:34.762Z,72.83
2023-01-19T05:38:36.281Z,73.04
2023-01-19T05:42:34.920Z,73.21
2023-01-19T05:46:35.074Z,73.32
2023-01-19T05:50:34.350Z,73.13
2023-01-19T05:54:35.598Z,73.12
2023-01-19T05:58:35.213Z,73.14
2023-01-19T06:02:33.867Z,73.26
2023-01-19T06:06:33.185Z,73.33
2023-01-19T06:10:34.631Z,73.32
2023-01-19T06:14:36.609Z,73.03
2023-01-19T06:18:35.898Z,72.71
2023-01-19T06:22:35.139Z,72.51
2023-01-19T06:26:37.022Z,72.54
2023-01-19T06:30:35.794Z,72.85
2023-01-19T06:34:35.132Z,72.83
2023-01-19T06:38:34.531Z,73.10
2023-01-19T06:42:35.883Z,73.30
2023-01-19T06:46:35.506Z,73.24
2023-01-19T06:50:34.728Z,72.92
2023-01-19T06:54:33.535Z,72.13
2023-01-19T06:58:35.636Z,71.25
2023-01-19T07:02:35.001Z,70.52
2023-01-19T07:06:34.419Z,70.23
2023-01-19T07:11:26.940Z,69.76
2023-01-19T07:14:55.407Z,69.22
2023-01-19T07:18:54.917Z,68.49
2023-01-19T07:22:57.954Z,67.48
2023-01-19T07:26:58.306Z,66.22
2023-01-19T07:30:59.758Z,65.22
2023-01-19T07:35:00.392Z,64.73
2023-01-19T07:39:07.211Z,64.22
2023-01-19T07:43:09.339Z,63.52
2023-01-19T07:47:12.225Z,62.65
2023-01-19T07:51:17.756Z,62.31
2023-01-19T07:55:17.482Z,62.03
2023-01-19T07:59:19.114Z,61.66
2023-01-19T08:03:21.168Z,60.71
2023-01-19T08:07:22.825Z,60.70
2023-01-19T08:11:22.160Z,59.92
2023-01-19T08:15:22.895Z,59.38
2023-01-19T08:19:26.958Z,59.22
2023-01-19T08:23:30.844Z,59.12
2023-01-19T08:27:30.891Z,58.57
2023-01-19T08:31:29.978Z,57.19
2023-01-19T08:35:31.471Z,57.23
2023-01-19T08:39:30.677Z,56.98
2023-01-19T08:43:30.038Z,56.21
2023-01-19T08:47:29.648Z,56.49
2023-01-19T08:51:31.047Z,55.44
2023-01-19T08:55:31.888Z,55.36
2023-01-19T08:59:31.112Z,54.89
2023-01-19T09:03:29.909Z,55.01
2023-01-19T09:07:35.340Z,54.65
2023-01-19T09:11:36.415Z,54.46
2023-01-19T09:15:37.345Z,54.39
2023-01-19T09:19:36.195Z,53.23
2023-01-19T09:23:37.755Z,52.76
2023-01-19T09:27:37.376Z,52.30
2023-01-19T09:31:36.781Z,51.42
2023-01-19T09:35:36.582Z,51.00
2023-01-19T09:39:38.094Z,49.12
2023-01-19T09:43:41.784Z,48.75
2023-01-19T09:47:40.977Z,46.75
2023-01-19T09:51:41.640Z,46.52
2023-01-19T09:55:43.603Z,44.76
2023-01-19T09:59:47.371Z,45.32
2023-01-19T10:03:46.664Z,44.29
2023-01-19T10:07:54.053Z,44.03
2023-01-19T10:11:59.486Z,43.41
2023-01-19T10:16:04.353Z,43.80
2023-01-19T10:20:05.217Z,43.84
2023-01-19T10:24:07.303Z,43.98
2023-01-19T10:28:08.450Z,43.43
2023-01-19T10:32:10.174Z,43.34
2023-01-19T10:36:18.758Z,42.87
2023-01-19T10:40:25.487Z,42.08
2023-01-19T10:44:28.058Z,42.20
2023-01-19T10:48:27.041Z,41.51
2023-01-19T10:52:30.802Z,42.67
2023-01-19T10:56:32.031Z,42.69
2023-01-19T11:00:35.225Z,42.34
2023-01-19T11:04:42.019Z,42.54
2023-01-19T11:08:41.282Z,42.07
2023-01-19T11:12:42.345Z,42.71
2023-01-19T11:16:47.571Z,42.55
2023-01-19T11:20:50.861Z,41.03
2023-01-19T11:24:51.802Z,41.34
2023-01-19T11:28:53.459Z,41.62
2023-01-19T11:32:59.030Z,41.55
2023-01-19T11:36:59.152Z,41.03
2023-01-19T11:40:59.020Z,41.52
2023-01-19T11:45:01.108Z,41.79
2023-01-19T11:49:05.670Z,42.07
2023-01-19T11:53:07.944Z,41.52
2023-01-19T11:57:12.690Z,41.15
2023-01-19T12:01:20.998Z,40.50
2023-01-19T12:05:26.460Z,39.89
2023-01-19T12:09:27.107Z,39.30
2023-01-19T12:13:26.641Z,40.07
2023-01-19T12:17:28.190Z,40.08
2023-01-19T12:21:30.573Z,40.06
2023-01-19T12:25:34.844Z,40.42
2023-01-19T12:29:36.557Z,40.28
2023-01-19T12:33:39.971Z,40.11
2023-01-19T12:37:44.255Z,39.70
2023-01-19T12:41:45.770Z,39.99
2023-01-19T12:45:47.721Z,40.10
2023-01-19T12:49:48.223Z,40.26
2023-01-19T12:53:57.599Z,39.99
2023-01-19T12:58:00.959Z,39.69
2023-01-19T13:02:27.596Z,39.87
2023-01-19T13:06:41.809Z,39.66
2023-01-19T13:11:09.208Z,39.39
2023-01-19T13:15:26.928Z,39.99
2023-01-19T13:19:34.829Z,40.09
2023-01-19T13:23:53.459Z,41.11
2023-01-19T13:27:53.275Z,41.51
2023-01-19T13:31:54.750Z,41.55
2023-01-19T13:35:58.216Z,42.24
2023-01-19T13:39:58.819Z,42.59
2023-01-19T13:44:03.537Z,42.71
2023-01-19T13:48:03.386Z,42.60
2023-01-19T13:52:14.019Z,42.69
2023-01-19T13:56:22.370Z,43.10
2023-01-19T14:00:23.929Z,43.26
2023-01-19T14:04:30.467Z,43.56
2023-01-19T14:08:33.495Z,43.34
2023-01-19T14:12:32.206Z,44.16
2023-01-19T14:16:32.021Z,44.15
2023-01-19T14:20:36.380Z,44.08
2023-01-19T14:24:38.349Z,43.85
2023-01-19T14:28:39.026Z,44.21
2023-01-19T14:32:48.179Z,44.41
2023-01-19T14:36:50.179Z,45.00
2023-01-19T14:40:51.832Z,45.39
2023-01-19T14:44:52.853Z,45.57
2023-01-19T14:48:52.975Z,45.98
2023-01-19T14:52:54.521Z,46.39
2023-01-19T14:56:57.481Z,46.88
2023-01-19T15:00:57.797Z,47.04
2023-01-19T15:04:57.496Z,47.41
2023-01-19T15:08:57.366Z,47.53
2023-01-19T15:13:00.099Z,47.65
2023-01-19T15:16:59.428Z,47.71
2023-01-19T15:21:02.458Z,47.93
2023-01-19T15:25:01.366Z,48.12
2023-01-19T15:29:02.883Z,48.21
2023-01-19T15:33:02.008Z,48.42
2023-01-19T15:37:01.404Z,48.33
2023-01-19T15:41:00.588Z,48.46
2023-01-19T15:45:03.294Z,48.53
2023-01-19T15:49:02.187Z,48.76
2023-01-19T15:53:01.616Z,48.95
2023-01-19T15:57:01.262Z,49.21
2023-01-19T16:01:02.793Z,49.35
2023-01-19T16:05:05.021Z,49.78
2023-01-19T16:09:04.796Z,50.02
2023-01-19T16:13:03.998Z,50.38
2023-01-19T16:17:06.123Z,50.78
2023-01-19T16:21:05.689Z,50.91
2023-01-19T16:25:05.177Z,51.25
2023-01-19T16:29:08.327Z,51.55
2023-01-19T16:33:11.181Z,51.70
2023-01-19T16:37:14.719Z,52.10
2023-01-19T16:41:16.341Z,52.52
2023-01-19T16:45:15.839Z,52.67
2023-01-19T16:49:18.130Z,52.82
2023-01-19T16:53:17.809Z,52.61
2023-01-19T16:57:33.633Z,52.73
2023-01-19T17:01:33.326Z,52.50
2023-01-19T17:05:35.025Z,52.64
2023-01-19T17:09:34.084Z,52.77
2023-01-19T17:13:33.482Z,52.80
2023-01-19T17:17:34.659Z,52.90
2023-01-19T17:21:36.536Z,53.39
2023-01-19T17:25:35.932Z,53.54
2023-01-19T17:29:36.377Z,53.79
2023-01-19T17:33:37.260Z,53.99
2023-01-19T17:37:38.567Z,54.34
2023-01-19T17:41:38.009Z,54.65
2023-01-19T17:45:37.814Z,54.58
2023-01-19T17:49:40.766Z,54.68
2023-01-19T17:53:42.939Z,54.79
2023-01-19T17:57:42.460Z,54.93
2023-01-19T18:01:45.113Z,54.99
2023-01-19T18:05:54.304Z,54.83
2023-01-19T18:09:56.810Z,54.81
2023-01-19T18:13:56.328Z,54.81
2023-01-19T18:17:55.694Z,54.97
2023-01-19T18:21:57.608Z,54.81
2023-01-19T18:26:03.418Z,54.71
2023-01-19T18:30:04.772Z,54.87
2023-01-19T18:34:07.655Z,55.23
2023-01-19T18:38:06.511Z,55.18
2023-01-19T18:42:09.779Z,55.27
2023-01-19T18:46:08.984Z,55.46
2023-01-19T18:50:08.803Z,55.64
2023-01-19T18:54:10.472Z,55.87
2023-01-19T18:58:12.069Z,56.02
2023-01-19T19:02:13.171Z,56.12
2023-01-19T19:06:16.978Z,56.46
2023-01-19T19:10:18.604Z,57.00
2023-01-19T19:14:21.521Z,57.02
2023-01-19T19:18:21.425Z,57.20
2023-01-19T19:22:20.288Z,57.23
2023-01-19T19:26:20.280Z,57.05
2023-01-19T19:30:22.530Z,57.28
2023-01-19T19:34:21.705Z,57.65
2023-01-19T19:38:23.957Z,57.54
2023-01-19T19:42:23.449Z,57.19
2023-01-19T19:46:26.056Z,57.17
2023-01-19T19:50:25.658Z,57.15
2023-01-19T19:54:24.599Z,57.49
2023-01-19T19:58:24.239Z,57.86
2023-01-19T20:02:25.674Z,58.32
2023-01-19T20:06:31.148Z,58.71
2023-01-19T20:10:32.100Z,58.72
2023-01-19T20:14:31.670Z,59.25
2023-01-19T20:18:34.245Z,60.38
2023-01-19T20:22:36.541Z,60.71
2023-01-19T20:26:38.871Z,61.57
2023-01-19T20:30:39.464Z,62.70
2023-01-19T20:34:41.180Z,64.22
2023-01-19T20:38:40.841Z,65.41
2023-01-19T20:42:43.178Z,65.37
2023-01-19T20:46:43.208Z,65.85
2023-01-19T20:50:44.396Z,66.11
2023-01-19T20:54:44.746Z,66.10
2023-01-19T20:58:44.161Z,65.54
2023-01-19T21:02:43.972Z,65.38
2023-01-19T21:06:45.860Z,64.73
2023-01-19T21:10:47.071Z,64.12
2023-01-19T21:14:47.452Z,63.90
2023-01-19T21:18:46.636Z,63.56
2023-01-19T21:22:49.141Z,63.82
2023-01-19T21:26:49.823Z,64.86
2023-01-19T21:30:49.476Z,65.15
2023-01-19T21:34:49.653Z,65.38
2023-01-19T21:38:55.200Z,66.24
2023-01-19T21:42:55.241Z,69.37
2023-01-19T21:46:55.453Z,69.85
2023-01-19T21:51:00.800Z,69.35
2023-01-19T21:55:02.800Z,69.65
2023-01-19T21:59:03.622Z,69.56
2023-01-19T22:03:04.598Z,70.34
2023-01-19T22:07:04.570Z,69.58
2023-01-19T22:11:07.158Z,69.80
2023-01-19T22:15:08.232Z,69.39
2023-01-19T22:19:07.915Z,68.65
2023-01-19T22:23:07.581Z,68.40
2023-01-19T22:27:09.800Z,68.47
2023-01-19T22:31:12.758Z,68.57
2023-01-19T22:35:12.666Z,68.03
2023-01-19T22:39:13.460Z,68.94
2023-01-19T22:43:14.734Z,69.36
2023-01-19T22:47:14.327Z,68.85
2023-01-19T22:51:13.827Z,68.66
2023-01-19T22:55:13.161Z,68.70
2023-01-19T22:59:15.099Z,69.52
2023-01-19T23:03:14.221Z,71.54
2023-01-19T23:07:13.697Z,71.43
2023-01-19T23:11:14.079Z,70.81
2023-01-19T23:15:15.874Z,70.54
2023-01-19T23:19:16.753Z,70.02
2023-01-19T23:23:16.533Z,69.94
2023-01-19T23:27:15.464Z,70.94
2023-01-19T23:31:18.590Z,70.67
2023-01-19T23:35:18.972Z,69.85
2023-01-19T23:39:19.573Z,69.96
2023-01-19T23:43:19.160Z,70.21
2023-01-19T23:47:21.001Z,70.67
2023-01-19T23:51:20.609Z,70.49
2023-01-19T23:55:20.066Z,70.10
2023-01-19T23:59:18.912Z,69.98
